Time;durP1;ratioP1;P1;durP2;ratioP2;P2;SDS_P1;SDS_P2;PMS_P1;PMS_P2;Temp;Humidity;BMP_temperature;BMP_pressure;BME280_temperature;BME280_humidity;BME280_pressure;Samples;Min_cycle;Max_cycle;Signal;HPM_P1;HPM_P2
2023/11/01 00:00:08;;;;;;;7.85;1.73;;;;;;;11.56;100.00;99642.38;5071979;28;20044;-74
2023/11/01 00:02:39;;;;;;;4.22;1.50;;;;;;;11.66;100.00;99662.06;5071248;28;20041;-73
2023/11/01 00:05:08;;;;;;;4.05;1.35;;;;;;;11.72;100.00;99661.69;5062485;28;20057;-74
2023/11/01 00:07:37;;;;;;;3.17;1.30;;;;;;;11.73;100.00;99647.47;5069359;28;20489;-72
2023/11/01 00:10:08;;;;;;;5.38;1.33;;;;;;;11.73;100.00;99644.81;5072843;28;20043;-73
2023/11/01 00:12:36;;;;;;;;;;;;;;;11.81;100.00;99660.25;5067939;28;20049;-74
2023/11/01 00:15:06;;;;;;;7.20;1.80;;;;;;;11.82;100.00;99652.19;5067698;28;19943;-73
2023/11/01 00:17:34;;;;;;;3.63;1.60;;;;;;;11.88;100.00;99658.94;5066859;28;20052;-73
2023/11/01 00:20:03;;;;;;;6.82;1.52;;;;;;;11.90;100.00;99649.06;5068926;28;20074;-74
2023/11/01 00:22:32;;;;;;;8.02;1.58;;;;;;;11.91;100.00;99648.13;5035922;28;20052;-73
2023/11/01 00:25:00;;;;;;;9.00;1.83;;;;;;;11.94;100.00;99647.94;5068797;28;20076;-72
2023/11/01 00:27:32;;;;;;;5.28;1.98;;;;;;;12.00;100.00;99651.97;5052698;28;20040;-73
2023/11/01 00:30:00;;;;;;;4.30;1.75;;;;;;;11.94;100.00;99622.25;5075192;28;20124;-74
2023/11/01 00:32:29;;;;;;;4.20;1.50;;;;;;;12.00;100.00;99642.22;5079135;28;20528;-73
2023/11/01 00:34:58;;;;;;;5.50;1.67;;;;;;;12.02;100.00;99650.94;5073983;28;20619;-73
2023/11/01 00:37:26;;;;;;;4.13;1.80;;;;;;;12.06;100.00;99641.84;5067024;28;20040;-75
2023/11/01 00:39:55;;;;;;;6.97;1.65;;;;;;;12.03;100.00;99647.34;5053449;28;20583;-73
2023/11/01 00:42:24;;;;;;;4.13;1.77;;;;;;;12.01;100.00;99635.97;5070986;28;20124;-73
2023/11/01 00:44:53;;;;;;;4.05;1.63;;;;;;;12.09;100.00;99643.44;5061780;28;20184;-73
2023/11/01 00:47:22;;;;;;;5.47;1.73;;;;;;;11.99;100.00;99626.38;5067165;28;20086;-73
2023/11/01 00:49:50;;;;;;;5.88;1.60;;;;;;;12.01;100.00;99649.22;5056070;28;20535;-73
2023/11/01 00:52:18;;;;;;;5.55;2.00;;;;;;;11.98;100.00;99633.50;5067187;28;20139;-73
2023/11/01 00:54:51;;;;;;;6.32;1.80;;;;;;;12.00;100.00;99642.22;5065602;28;20483;-74
2023/11/01 00:57:21;;;;;;;4.97;1.77;;;;;;;11.99;100.00;99632.56;5068810;28;20055;-73
2023/11/01 00:59:51;;;;;;;5.90;1.85;;;;;;;11.98;100.00;99641.47;5073112;28;20059;-73
2023/11/01 01:02:23;;;;;;;4.75;1.65;;;;;;;12.01;100.00;99637.75;5052919;28;20055;-73
2023/11/01 01:04:51;;;;;;;3.28;1.70;;;;;;;11.92;100.00;99623.31;5071574;28;20160;-74
2023/11/01 01:07:20;;;;;;;5.28;1.67;;;;;;;11.99;100.00;99642.31;5052418;28;20040;-73
2023/11/01 01:09:49;;;;;;;4.95;1.83;;;;;;;11.98;100.00;99638.81;5075792;28;20108;-74
2023/11/01 01:12:20;;;;;;;4.68;1.60;;;;;;;11.94;100.00;99632.88;5076664;28;20158;-74
2023/11/01 01:14:48;;;;;;;3.22;1.58;;;;;;;11.98;100.00;99638.81;5070495;28;20131;-73
2023/11/01 01:17:18;;;;;;;3.88;1.60;;;;;;;11.98;100.00;99625.53;5067260;28;20104;-72
2023/11/01 01:19:47;;;;;;;5.38;1.80;;;;;;;12.00;100.00;99631.59;5051947;28;20082;-73
2023/11/01 01:22:23;;;;;;;3.03;1.23;;;;;;;11.98;100.00;99627.34;5065679;28;20045;-73
2023/11/01 01:24:52;;;;;;;6.38;1.92;;;;;;;11.96;100.00;99622.16;5067249;28;20044;-73
2023/11/01 01:27:22;;;;;;;4.72;1.73;;;;;;;11.92;100.00;99620.66;5060452;28;20052;-73
2023/11/01 01:29:52;;;;;;;5.55;1.80;;;;;;;11.91;100.00;99616.28;5069166;28;20362;-74
2023/11/01 01:32:21;;;;;;;7.90;1.92;;;;;;;11.93;100.00;99614.41;5064921;28;20143;-73
2023/11/01 01:34:55;;;;;;;5.18;2.10;;;;;;;11.81;100.00;99588.63;5064826;28;20441;-74
2023/11/01 01:37:23;;;;;;;6.60;2.25;;;;;;;11.89;100.00;99603.13;5064229;28;20055;-75
2023/11/01 01:39:51;;;;;;;6.10;1.83;;;;;;;11.90;100.00;99603.97;5037739;28;20501;-74
2023/11/01 01:42:20;;;;;;;3.65;1.50;;;;;;;11.83;100.00;99602.66;5067980;28;20064;-72
2023/11/01 01:44:50;;;;;;;5.63;2.03;;;;;;;11.83;100.00;99600.00;5070129;28;20037;-74
2023/11/01 01:47:18;;;;;;;5.50;2.08;;;;;;;11.81;100.00;99599.25;5066360;28;20134;-74
2023/11/01 01:49:47;;;;;;;6.80;2.03;;;;;;;11.81;100.00;99592.16;5074630;28;20052;-72
2023/11/01 01:55:10;;;;;;;8.25;1.83;;;;;;;11.79;100.00;99580.81;5066580;28;20037;-73
2023/11/01 01:57:39;;;;;;;4.30;2.00;;;;;;;11.78;100.00;99581.75;5064994;28;20095;-73
2023/11/01 02:00:11;;;;;;;7.28;2.05;;;;;;;11.75;100.00;99581.06;5049350;28;20048;-73
2023/11/01 02:02:41;;;;;;;3.97;1.83;;;;;;;11.78;100.00;99580.91;5064290;28;20117;-72
2023/11/01 02:05:10;;;;;;;4.68;1.77;;;;;;;11.80;100.00;99586.97;5065284;28;20055;-73
2023/11/01 02:07:42;;;;;;;7.78;2.17;;;;;;;11.78;100.00;99580.91;5064174;28;20041;-73
2023/11/01 02:10:14;;;;;;;4.47;1.88;;;;;;;11.76;100.00;99572.19;5069098;28;20052;-73
2023/11/01 02:12:44;;;;;;;3.63;1.58;;;;;;;11.75;100.00;99563.34;5064707;28;20556;-71
2023/11/01 02:15:13;;;;;;;3.90;1.98;;;;;;;11.74;100.00;99559.00;5054661;28;20486;-72
2023/11/01 02:17:41;;;;;;;4.65;1.73;;;;;;;11.67;100.00;99554.16;5075969;28;20045;-73
2023/11/01 02:20:11;;;;;;;4.30;1.75;;;;;;;11.71;100.00;99561.84;5068653;28;20048;-72
2023/11/01 02:22:42;;;;;;;3.78;1.80;;;;;;;11.72;100.00;99557.38;5069040;28;20055;-72
2023/11/01 02:25:13;;;;;;;4.50;1.60;;;;;;;11.70;100.00;99560.13;5070889;28;20416;-72
2023/11/01 02:27:41;;;;;;;4.97;1.90;;;;;;;11.67;100.00;99557.66;5061762;28;20059;-72
2023/11/01 02:30:16;;;;;;;4.70;1.80;;;;;;;11.65;100.00;99562.22;5065175;28;20045;-73
2023/11/01 02:32:47;;;;;;;6.38;1.75;;;;;;;11.72;100.00;99562.69;5059737;28;20435;-74
2023/11/01 02:35:16;;;;;;;5.90;1.58;;;;;;;11.74;100.00;99556.34;5065381;28;20049;-72
2023/11/01 02:37:45;;;;;;;4.45;1.70;;;;;;;11.71;100.00;99559.19;5067003;28;20052;-72
2023/11/01 02:40:18;;;;;;;5.03;1.70;;;;;;;11.69;100.00;99549.63;5068225;28;20071;-73
2023/11/01 02:42:47;;;;;;;6.82;1.73;;;;;;;11.70;100.00;99553.97;5073254;28;20670;-73
2023/11/01 02:45:18;;;;;;;5.53;1.63;;;;;;;11.69;100.00;99546.97;5089708;28;20036;-72
2023/11/01 02:47:46;;;;;;;4.13;2.08;;;;;;;11.71;100.00;99537.13;5064259;28;20127;-72
2023/11/01 02:50:15;;;;;;;4.05;1.85;;;;;;;11.71;100.00;99543.28;5073966;28;20048;-73
2023/11/01 02:52:44;;;;;;;4.72;1.75;;;;;;;11.66;100.00;99537.41;5088640;28;20136;-73
2023/11/01 02:55:14;;;;;;;5.55;2.00;;;;;;;11.65;100.00;99538.34;5072893;28;20051;-72
2023/11/01 02:57:46;;;;;;;3.83;1.65;;;;;;;11.69;100.00;99531.06;5062528;28;20056;-71
2023/11/01 03:00:19;;;;;;;5.18;2.13;;;;;;;11.67;100.00;99532.97;5074407;28;20111;-73
2023/11/01 03:02:49;;;;;;;4.97;1.92;;;;;;;11.56;100.00;99515.94;5067217;28;20045;-73
2023/11/01 03:05:19;;;;;;;3.92;2.03;;;;;;;11.54;100.00;99520.50;5068931;28;20052;-72
2023/11/01 03:07:48;;;;;;;5.78;2.20;;;;;;;11.57;100.00;99517.66;5063401;28;20040;-72
2023/11/01 03:10:18;;;;;;;5.40;2.03;;;;;;;11.61;100.00;99523.63;5070626;28;20988;-72
2023/11/01 03:12:47;;;;;;;5.43;1.97;;;;;;;11.59;100.00;99525.50;5074312;28;20557;-72
2023/11/01 03:15:15;;;;;;;5.68;2.30;;;;;;;11.60;100.00;99524.56;5080154;28;20523;-73
2023/11/01 03:17:43;;;;;;;5.13;1.95;;;;;;;11.63;100.00;99520.88;5062924;28;20071;-72
2023/11/01 03:20:13;;;;;;;7.85;2.00;;;;;;;11.66;100.00;99515.34;5063114;28;20077;-72
2023/11/01 03:22:41;;;;;;;4.93;2.38;;;;;;;11.64;100.00;99510.16;5070100;28;20044;-72
2023/11/01 03:25:09;;;;;;;4.13;1.98;;;;;;;11.65;100.00;99516.31;5074348;28;20040;-72
2023/11/01 03:27:40;;;;;;;6.15;2.10;;;;;;;11.63;100.00;99515.56;5059817;28;20056;-72
2023/11/01 03:30:12;;;;;;;3.38;1.95;;;;;;;11.66;100.00;99510.88;5069728;28;20068;-72
2023/11/01 03:32:43;;;;;;;;;;;;;;;11.64;100.00;99506.66;5065765;28;20543;-71
2023/11/01 03:35:11;;;;;;;4.22;1.85;;;;;;;11.64;100.00;99514.63;5072351;28;19962;-72
2023/11/01 03:37:41;;;;;;;4.80;1.90;;;;;;;11.62;100.00;99501.44;5045834;28;20052;-72
2023/11/01 03:40:09;;;;;;;6.10;2.25;;;;;;;11.69;100.00;99496.59;5087485;28;20064;-71
2023/11/01 03:42:38;;;;;;;6.35;2.20;;;;;;;11.81;100.00;99498.44;5068218;28;20056;-71
2023/11/01 03:45:08;;;;;;;8.15;2.33;;;;;;;11.78;100.00;99485.41;5069920;28;20376;-71
2023/11/01 03:47:45;;;;;;;4.75;2.13;;;;;;;11.81;100.00;99493.16;5062478;28;20051;-71
2023/11/01 03:50:13;;;;;;;4.05;2.10;;;;;;;11.86;100.00;99497.19;5067697;28;20139;-73
2023/11/01 03:52:42;;;;;;;5.80;2.35;;;;;;;11.84;100.00;99493.81;5084567;28;20062;-71
2023/11/01 03:55:13;;;;;;;6.65;1.95;;;;;;;11.89;100.00;99490.84;5071015;28;20039;-72
2023/11/01 03:57:42;;;;;;;4.65;2.15;;;;;;;11.84;100.00;99492.94;5065140;28;20066;-73
2023/11/01 04:00:20;;;;;;;5.57;2.40;;;;;;;11.76;100.00;99476.72;5065943;28;20094;-72
2023/11/01 04:02:51;;;;;;;4.55;2.17;;;;;;;11.71;100.00;99471.66;5066797;28;20067;-72
2023/11/01 04:05:20;;;;;;;5.30;2.40;;;;;;;11.72;100.00;99472.50;5055224;28;20071;-72
2023/11/01 04:07:48;;;;;;;5.43;2.33;;;;;;;11.71;100.00;99473.47;5062533;28;20056;-72
2023/11/01 04:10:16;;;;;;;4.47;2.15;;;;;;;11.72;100.00;99475.16;5067220;28;20052;-71
2023/11/01 04:12:47;;;;;;;4.22;2.13;;;;;;;11.73;100.00;99471.56;5071503;28;20131;-71
2023/11/01 04:15:16;;;;;;;4.38;2.22;;;;;;;11.76;100.00;99474.06;5077048;28;20545;-72
2023/11/01 04:17:44;;;;;;;3.70;1.98;;;;;;;11.63;100.00;99450.13;5070656;28;20450;-73
2023/11/01 04:20:16;;;;;;;7.55;2.25;;;;;;;11.73;100.00;99474.22;5068568;28;20107;-73
2023/11/01 04:22:45;;;;;;;5.95;1.75;;;;;;;11.76;100.00;99463.44;5068380;28;20052;-71
2023/11/01 04:25:13;;;;;;;6.35;2.00;;;;;;;11.72;100.00;99457.47;5069476;28;20110;-71
2023/11/01 04:27:41;;;;;;;5.50;2.20;;;;;;;11.74;100.00;99466.16;5062317;28;20129;-72
2023/11/01 04:30:12;;;;;;;8.40;2.30;;;;;;;11.77;100.00;99465.16;5078324;28;20063;-71
2023/11/01 04:32:41;;;;;;;8.75;2.00;;;;;;;11.79;100.00;99466.75;5072743;28;20048;-72
2023/11/01 04:35:10;;;;;;;6.20;2.50;;;;;;;11.81;100.00;99461.31;5063938;28;20045;-72
2023/11/01 04:37:41;;;;;;;3.55;1.92;;;;;;;11.70;100.00;99454.06;5040960;28;20056;-72
2023/11/01 04:40:11;;;;;;;3.65;1.92;;;;;;;11.74;100.00;99458.22;5084677;28;20041;-71
2023/11/01 04:42:41;;;;;;;4.55;2.08;;;;;;;11.73;100.00;99459.16;5070827;28;20055;-72
2023/11/01 04:45:12;;;;;;;7.93;2.13;;;;;;;11.68;100.00;99449.78;5069246;28;20057;-72
2023/11/01 04:47:42;;;;;;;8.05;2.30;;;;;;;11.75;100.00;99446.66;5063817;28;20036;-72
2023/11/01 04:50:12;;;;;;;5.57;1.90;;;;;;;11.81;100.00;99446.25;5066665;28;20049;-71
2023/11/01 04:52:43;;;;;;;4.53;1.90;;;;;;;11.81;100.00;99443.59;5068863;28;20497;-72
2023/11/01 04:55:12;;;;;;;7.53;2.00;;;;;;;11.84;100.00;99442.53;5063910;28;20045;-71
2023/11/01 04:57:43;;;;;;;8.55;2.08;;;;;;;11.82;100.00;99432.03;5054844;28;20122;-72
2023/11/01 05:00:16;;;;;;;3.03;1.85;;;;;;;11.88;100.00;99439.59;5069345;28;20036;-72
2023/11/01 05:02:45;;;;;;;4.20;1.85;;;;;;;11.84;100.00;99431.94;5070288;28;20032;-72
2023/11/01 05:05:17;;;;;;;6.40;2.10;;;;;;;11.84;100.00;99438.09;5070903;28;20045;-72
2023/11/01 05:07:47;;;;;;;6.57;2.30;;;;;;;11.88;100.00;99431.63;5056613;28;21150;-73
2023/11/01 05:10:15;;;;;;;6.53;1.50;;;;;;;11.84;100.00;99418.66;5065917;28;20048;-73
2023/11/01 05:12:43;;;;;;;5.65;1.60;;;;;;;11.85;100.00;99409.75;5070046;28;20097;-73
2023/11/01 05:15:15;;;;;;;5.78;1.83;;;;;;;11.86;100.00;99414.13;5068831;28;20051;-73
2023/11/01 05:17:44;;;;;;;6.32;1.63;;;;;;;11.86;100.00;99420.28;5065836;28;20044;-72
2023/11/01 05:20:13;;;;;;;7.65;2.00;;;;;;;11.87;100.00;99427.28;5068487;28;20068;-73
2023/11/01 05:22:42;;;;;;;6.53;2.00;;;;;;;11.89;100.00;99435.13;5069659;28;20040;-73
2023/11/01 05:25:14;;;;;;;5.35;1.85;;;;;;;11.86;100.00;99432.69;5070846;28;20117;-74
2023/11/01 05:27:44;;;;;;;6.10;1.80;;;;;;;11.76;100.00;99427.16;5059609;28;20110;-73
2023/11/01 05:30:15;;;;;;;7.63;2.08;;;;;;;11.82;100.00;99436.50;5070152;28;20064;-72
2023/11/01 05:32:45;;;;;;;5.65;1.63;;;;;;;11.82;100.00;99433.84;5079225;28;20037;-74
2023/11/01 05:35:23;;;;;;;7.47;2.28;;;;;;;11.87;100.00;99434.38;5071091;28;20497;-73
2023/11/01 05:37:52;;;;;;;6.20;1.92;;;;;;;11.92;100.00;99437.59;5064528;28;20048;-72
2023/11/01 05:40:25;;;;;;;5.93;2.20;;;;;;;11.92;100.00;99435.78;5066804;28;20053;-72
2023/11/01 05:42:53;;;;;;;10.15;2.22;;;;;;;11.87;100.00;99424.63;5071717;28;20812;-72
2023/11/01 05:45:29;;;;;;;7.88;2.30;;;;;;;11.93;100.00;99437.50;5070102;28;20445;-72
2023/11/01 05:47:57;;;;;;;7.72;1.95;;;;;;;11.86;100.00;99420.28;5061716;28;20416;-73
2023/11/01 05:51:16;;;;;;;7.75;2.03;;;;;;;11.94;100.00;99427.72;5067866;28;20041;-74
2023/11/01 05:54:34;;;;;;;7.40;2.20;;;;;;;11.93;100.00;99439.28;5064211;28;20056;-74
2023/11/01 05:57:09;;;;;;;7.28;1.77;;;;;;;11.92;100.00;99437.59;5078757;28;20635;-72
2023/11/01 05:59:43;;;;;;;6.57;1.80;;;;;;;11.72;100.00;99406.22;5062931;28;20048;-73
2023/11/01 06:02:18;;;;;;;7.97;2.08;;;;;;;11.83;100.00;99424.94;5063065;28;20053;-73
2023/11/01 06:04:49;;;;;;;9.63;2.25;;;;;;;11.96;100.00;99431.13;5073187;28;20072;-74
2023/11/01 06:07:18;;;;;;;9.13;2.05;;;;;;;11.91;100.00;99430.59;5064556;28;20529;-72
2023/11/01 06:09:51;;;;;;;7.75;1.98;;;;;;;11.90;100.00;99419.13;5066451;28;20073;-72
2023/11/01 06:12:20;;;;;;;5.68;2.25;;;;;;;11.96;100.00;99422.31;5071378;28;20140;-73
2023/11/01 06:14:49;;;;;;;8.52;1.90;;;;;;;11.97;100.00;99424.84;5071829;28;20048;-73
2023/11/01 06:17:20;;;;;;;6.00;1.70;;;;;;;11.99;100.00;99416.78;5066745;28;20044;-72
2023/11/01 06:19:52;;;;;;;7.38;2.17;;;;;;;12.02;100.00;99422.72;5086784;28;20439;-73
2023/11/01 06:22:20;;;;;;;7.75;1.90;;;;;;;12.06;100.00;99428.69;5074016;28;20044;-73
2023/11/01 06:24:49;;;;;;;9.27;1.73;;;;;;;12.07;100.00;99427.75;5075545;28;20033;-72
2023/11/01 06:27:18;;;;;;;6.40;1.77;;;;;;;12.15;100.00;99428.03;5086296;28;20056;-73
2023/11/01 06:29:52;;;;;;;7.47;1.87;;;;;;;12.13;100.00;99425.50;5050165;28;20049;-72
2023/11/01 06:32:21;;;;;;;6.43;2.03;;;;;;;12.14;100.00;99426.34;5072225;28;20052;-73
2023/11/01 06:34:49;;;;;;;7.40;2.40;;;;;;;12.08;100.00;99410.88;5055250;28;20184;-73
2023/11/01 06:37:18;;;;;;;10.07;2.28;;;;;;;12.16;100.00;99425.28;5071751;28;22175;-71
2023/11/01 06:39:46;;;;;;;11.05;2.50;;;;;;;12.05;100.00;99393.34;5067251;28;20040;-71
2023/11/01 06:42:17;;;;;;;9.60;2.17;;;;;;;12.30;100.00;99417.22;5074158;28;20063;-72
2023/11/01 06:44:47;;;;;;;7.57;2.10;;;;;;;12.38;100.00;99418.50;5066856;28;20095;-72
2023/11/01 06:47:17;;;;;;;10.45;2.83;;;;;;;12.38;100.00;99423.81;5066273;28;20606;-74
2023/11/01 06:49:47;;;;;;;9.50;2.25;;;;;;;12.38;100.00;99421.16;5066255;28;20143;-73
2023/11/01 06:52:15;;;;;;;5.68;1.40;;;;;;;12.41;100.00;99427.13;5069993;28;20055;-72
2023/11/01 06:54:44;;;;;;;8.63;2.05;;;;;;;12.40;100.00;99421.91;5074648;28;20049;-73
2023/11/01 06:57:17;;;;;;;5.53;2.17;;;;;;;12.43;100.00;99427.00;5059145;28;20048;-73
2023/11/01 06:59:47;;;;;;;9.57;2.55;;;;;;;12.41;100.00;99426.25;5075416;28;20045;-74
2023/11/01 07:02:30;;;;;;;6.70;2.28;;;;;;;12.32;100.00;99408.31;5056581;28;20048;-80
2023/11/01 07:05:04;;;;;;;7.68;1.77;;;;;;;12.47;100.00;99423.16;5088920;28;20094;-81
2023/11/01 07:07:33;;;;;;;9.30;1.90;;;;;;;12.51;100.00;99422.00;5067112;28;20057;-73
2023/11/01 07:10:03;;;;;;;8.00;1.83;;;;;;;12.58;100.00;99434.75;5056926;28;20040;-73
2023/11/01 07:12:34;;;;;;;6.22;1.88;;;;;;;12.55;100.00;99426.16;5074399;28;20159;-72
2023/11/01 07:15:07;;;;;;;10.52;2.13;;;;;;;12.62;100.00;99438.00;5058581;28;20056;-71
2023/11/01 07:17:37;;;;;;;12.65;1.60;;;;;;;12.61;100.00;99431.84;5072430;28;20711;-73
2023/11/01 07:20:09;;;;;;;8.43;1.70;;;;;;;12.64;100.00;99428.13;5072885;28;20059;-73
2023/11/01 07:22:38;;;;;;;7.45;1.95;;;;;;;12.49;100.00;99413.28;5075428;28;20066;-73
2023/11/01 07:25:07;;;;;;;8.10;1.87;;;;;;;12.61;100.00;99429.19;5075609;28;20045;-73
2023/11/01 07:27:36;;;;;;;8.50;2.13;;;;;;;12.61;100.00;99426.53;5060826;28;20063;-73
2023/11/01 07:30:10;;;;;;;11.02;1.77;;;;;;;12.67;100.00;99435.91;5067972;28;20157;-75
2023/11/01 07:32:44;;;;;;;6.00;1.55;;;;;;;12.70;100.00;99430.38;5056803;28;20107;-72
2023/11/01 07:35:13;;;;;;;5.43;1.60;;;;;;;12.77;100.00;99434.28;5071642;28;20058;-72
2023/11/01 07:37:42;;;;;;;10.20;2.40;;;;;;;12.83;100.00;99433.84;5073560;28;20036;-74
2023/11/01 07:40:10;;;;;;;6.53;2.13;;;;;;;12.84;100.00;99432.88;5062953;28;20049;-73
2023/11/01 07:42:41;;;;;;;7.95;2.30;;;;;;;12.87;100.00;99439.78;5070720;28;20053;-73
2023/11/01 07:45:12;;;;;;;5.90;1.77;;;;;;;12.89;100.00;99441.38;5077539;28;20048;-73
2023/11/01 07:47:44;;;;;;;8.15;1.70;;;;;;;12.89;100.00;99436.06;5066383;28;20047;-73
2023/11/01 07:50:13;;;;;;;4.78;1.90;;;;;;;12.91;100.00;99430.63;5068891;28;20503;-72
2023/11/01 07:52:44;;;;;;;6.38;2.00;;;;;;;12.99;100.00;99430.94;5075068;28;20045;-73
2023/11/01 07:55:17;;;;;;;7.57;2.35;;;;;;;13.01;100.00;99429.03;5071283;28;20053;-74
2023/11/01 07:57:44;;;;;;;9.85;2.17;;;;;;;13.04;100.00;99427.97;5068748;28;20044;-73
2023/11/01 08:00:15;;;;;;;5.82;1.52;;;;;;;13.05;100.00;99427.84;5067391;28;20140;-73
2023/11/01 08:02:47;;;;;;;8.55;2.10;;;;;;;13.13;100.00;99433.44;5067377;28;20123;-73
2023/11/01 08:05:17;;;;;;;;;;;;;;;13.11;100.00;99424.72;5071203;28;20052;-72
2023/11/01 08:07:46;;;;;;;7.25;1.92;;;;;;;13.01;100.00;99423.72;5068145;28;20043;-73
2023/11/01 08:10:14;;;;;;;7.97;1.77;;;;;;;12.94;100.00;99425.94;5048523;28;20044;-73
2023/11/01 08:12:45;;;;;;;4.00;1.33;;;;;;;12.85;100.00;99423.97;5055666;28;20044;-73
2023/11/01 08:15:15;;;;;;;5.80;2.03;;;;;;;12.86;100.00;99420.34;5066988;28;20044;-73
2023/11/01 08:17:43;;;;;;;10.40;1.95;;;;;;;12.90;100.00;99416.53;5064153;28;20094;-73
2023/11/01 08:20:14;;;;;;;6.65;1.58;;;;;;;12.88;100.00;99423.75;5059955;28;20134;-73
2023/11/01 08:22:44;;;;;;;7.70;1.90;;;;;;;12.89;100.00;99420.13;5070116;28;20139;-72
2023/11/01 08:25:15;;;;;;;7.60;1.80;;;;;;;12.94;100.00;99423.28;5092683;28;20048;-73
2023/11/01 08:31:04;;;;;;;5.68;1.67;;;;;;;12.97;100.00;99415.09;5070517;28;20059;-73
2023/11/01 08:33:34;;;;;;;5.63;1.98;;;;;;;12.91;100.00;99420.84;5061489;28;20048;-72
2023/11/01 08:36:09;;;;;;;4.95;1.70;;;;;;;12.89;100.00;99413.97;5065915;28;20100;-73
2023/11/01 08:38:38;;;;;;;6.28;1.63;;;;;;;13.02;100.00;99416.59;5047368;28;20037;-74
2023/11/01 08:41:08;;;;;;;8.38;2.22;;;;;;;12.99;100.00;99388.41;5062005;28;20417;-74
2023/11/01 08:43:37;;;;;;;6.47;1.30;;;;;;;13.08;100.00;99360.31;5064263;28;20050;-73
2023/11/01 08:46:11;;;;;;;6.85;2.40;;;;;;;13.48;100.00;99401.63;5062021;28;20044;-73
2023/11/01 08:48:41;;;;;;;9.82;1.90;;;;;;;13.73;100.00;99399.78;5059927;28;20047;-73
2023/11/01 08:51:11;;;;;;;6.25;1.90;;;;;;;13.88;100.00;99380.00;5061895;28;20053;-74
2023/11/01 08:53:39;;;;;;;6.78;1.30;;;;;;;14.19;100.00;99402.44;5074283;28;20064;-73
2023/11/01 08:56:10;;;;;;;5.28;1.70;;;;;;;14.34;100.00;99406.56;5064667;28;20072;-72
2023/11/01 08:58:38;;;;;;;3.80;1.70;;;;;;;14.32;100.00;99396.03;5071964;28;20113;-72
2023/11/01 09:01:07;;;;;;;4.65;1.58;;;;;;;14.24;100.00;99397.59;5066866;28;20040;-72
2023/11/01 09:03:35;;;;;;;5.75;1.55;;;;;;;14.30;100.00;99411.31;5062614;28;20044;-73
2023/11/01 09:06:05;;;;;;;11.93;2.05;;;;;;;14.34;100.00;99396.75;5066916;28;20048;-73
2023/11/01 09:08:37;;;;;;;4.53;1.42;;;;;;;14.47;100.00;99409.19;5065351;28;20079;-73
2023/11/01 09:11:06;;;;;;;5.00;1.40;;;;;;;14.47;100.00;99404.69;5048882;28;20045;-74
2023/11/01 09:13:37;;;;;;;5.00;1.35;;;;;;;14.51;100.00;99403.47;5066859;28;20463;-73
2023/11/01 09:16:05;;;;;;;;;;;;;;;14.61;100.00;99411.59;5053184;28;20036;-74
2023/11/01 09:18:34;;;;;;;9.18;1.70;;;;;;;14.60;100.00;99409.91;5065563;28;19955;-72
2023/11/01 09:21:05;;;;;;;6.30;1.42;;;;;;;14.59;100.00;99410.88;5046417;28;20570;-75
2023/11/01 09:23:34;;;;;;;9.68;1.90;;;;;;;14.56;100.00;99400.44;5067562;28;20052;-74
2023/11/01 09:26:07;;;;;;;6.65;2.10;;;;;;;14.50;100.00;99407.09;5069013;28;20040;-74
2023/11/01 09:28:35;;;;;;;7.28;1.60;;;;;;;14.59;100.00;99411.72;5063816;28;20056;-77
2023/11/01 09:31:03;;;;;;;4.95;1.38;;;;;;;14.62;100.00;99410.63;5065606;28;20425;-72
2023/11/01 09:33:35;;;;;;;6.28;1.70;;;;;;;14.68;100.00;99410.13;5072988;28;20079;-73
2023/11/01 09:36:11;;;;;;;7.95;1.45;;;;;;;14.71;100.00;99424.06;5065566;28;20146;-74
2023/11/01 09:38:39;;;;;;;13.38;1.80;;;;;;;14.74;100.00;99414.97;5067986;28;20090;-74
2023/11/01 09:41:12;;;;;;;8.77;1.60;;;;;;;14.74;100.00;99414.97;5088321;28;20075;-74
2023/11/01 09:43:41;;;;;;;7.13;1.60;;;;;;;14.80;100.00;99418.94;5071498;28;20517;-73
2023/11/01 09:46:09;;;;;;;6.88;1.45;;;;;;;14.78;100.00;99416.44;5073834;28;20044;-73
2023/11/01 09:48:42;;;;;;;9.30;1.45;;;;;;;14.76;100.00;99404.19;5061019;28;20074;-73
2023/11/01 09:51:12;;;;;;;7.35;1.60;;;;;;;14.81;100.00;99418.81;5074809;28;20075;-72
2023/11/01 09:53:50;;;;;;;11.95;2.00;;;;;;;14.70;100.00;99401.03;5082980;28;20052;-74
2023/11/01 09:56:22;;;;;;;6.03;1.70;;;;;;;14.79;100.00;99409.28;5076342;28;20631;-73
2023/11/01 09:58:54;;;;;;;9.60;2.15;;;;;;;14.87;100.00;99421.00;5092420;28;20080;-73
2023/11/01 10:01:25;;;;;;;7.55;1.67;;;;;;;15.04;100.00;99414.34;5086817;28;20071;-73
2023/11/01 10:03:54;;;;;;;9.07;2.40;;;;;;;15.22;100.00;99418.19;5053793;28;20057;-73
2023/11/01 10:06:28;;;;;;;10.52;1.52;;;;;;;15.38;100.00;99412.44;5065297;28;20079;-72
2023/11/01 10:08:56;;;;;;;6.75;1.50;;;;;;;15.55;100.00;99413.72;5074025;28;20049;-73
2023/11/01 10:11:28;;;;;;;7.70;1.30;;;;;;;15.72;100.00;99413.19;5079589;28;20078;-73
2023/11/01 10:13:58;;;;;;;6.50;1.42;;;;;;;15.55;100.00;99395.91;5077867;28;20539;-73
2023/11/01 10:16:33;;;;;;;4.25;1.17;;;;;;;15.56;100.00;99391.41;5066644;28;20124;-74
2023/11/01 10:19:03;;;;;;;5.07;1.30;;;;;;;15.58;100.00;99393.00;5070783;28;20044;-73
2023/11/01 10:21:37;;;;;;;10.38;1.52;;;;;;;15.58;100.00;99393.00;5073031;28;20433;-74
2023/11/01 10:24:07;;;;;;;6.75;1.25;;;;;;;15.63;100.00;99388.09;5070676;28;20040;-73
2023/11/01 10:26:45;;;;;;;19.37;2.50;;;;;;;15.47;100.00;99392.13;5072228;28;20151;-73
2023/11/01 10:29:13;;;;;;;7.82;1.65;;;;;;;15.46;100.00;99396.63;5075643;28;20044;-74
2023/11/01 10:31:43;;;;;;;5.50;1.58;;;;;;;15.48;100.00;99389.34;5077126;28;20079;-72
2023/11/01 10:34:12;;;;;;;10.13;2.17;;;;;;;15.45;100.00;99390.44;5060406;28;20064;-73
2023/11/01 10:36:51;;;;;;;12.70;1.77;;;;;;;15.36;100.00;99383.22;5064569;28;20040;-72
2023/11/01 10:39:22;;;;;;;9.10;1.50;;;;;;;15.24;100.00;99386.91;5072959;28;20045;-73
2023/11/01 10:41:55;;;;;;;7.15;1.42;;;;;;;15.12;100.00;99371.03;5056667;28;20075;-74
2023/11/01 10:44:33;;;;;;;8.35;1.48;;;;;;;15.03;100.00;99383.31;5075008;28;20052;-73
2023/11/01 10:47:04;;;;;;;8.23;1.60;;;;;;;14.96;100.00;99380.28;5068915;28;20037;-73
2023/11/01 10:49:33;;;;;;;10.63;2.17;;;;;;;14.96;100.00;99372.28;5057318;28;20044;-73
2023/11/01 10:52:29;;;;;;;8.85;1.50;;;;;;;15.11;100.00;99362.19;5069494;28;20056;-73
2023/11/01 10:55:01;;;;;;;12.52;4.50;;;;;;;15.27;100.00;99359.09;5059886;28;20044;-74
2023/11/01 10:57:32;;;;;;;9.45;3.10;;;;;;;15.47;100.00;99352.97;5064767;28;20040;-72
2023/11/01 11:00:08;;;;;;;7.78;2.35;;;;;;;15.54;100.00;99318.63;5069111;28;20745;-73
2023/11/01 11:02:44;;;;;;;4.53;1.63;;;;;;;15.77;100.00;99333.56;5088486;28;20069;-73
2023/11/01 11:05:17;;;;;;;4.75;1.15;;;;;;;15.72;100.00;99330.44;5069124;28;20041;-74
2023/11/01 11:07:52;;;;;;;6.15;1.75;;;;;;;15.58;100.00;99323.63;5067687;28;20048;-73
2023/11/01 11:10:25;;;;;;;7.20;2.03;;;;;;;15.75;100.00;99317.66;5075275;28;20056;-74
2023/11/01 11:13:26;;;;;;;7.65;1.60;;;;;;;15.76;100.00;99324.69;5062055;28;20049;-74
2023/11/01 11:15:59;;;;;;;7.47;1.88;;;;;;;15.78;100.00;99321.91;5069368;28;20072;-73
2023/11/01 11:18:51;;;;;;;4.53;1.27;;;;;;;15.68;100.00;99300.50;5071493;28;20168;-74
2023/11/01 11:22:02;;;;;;;5.50;1.20;;;;;;;15.57;100.00;99305.91;5058163;28;20053;-73
2023/11/01 11:24:55;;;;;;;3.53;1.75;;;;;;;15.59;100.00;99298.59;5071949;28;20040;-73
2023/11/01 11:27:49;;;;;;;4.93;1.55;;;;;;;15.78;100.00;99305.88;5063308;28;20051;-74
2023/11/01 11:30:50;;;;;;;5.47;1.50;;;;;;;16.00;100.00;99310.22;5067182;28;20099;-74
2023/11/01 11:33:22;;;;;;;7.35;1.40;;;;;;;16.16;100.00;99299.91;5067877;28;20052;-75
2023/11/01 11:36:09;;;;;;;4.47;1.27;;;;;;;16.11;100.00;99294.97;5062927;28;20051;-73
2023/11/01 11:38:37;;;;;;;2.20;1.15;;;;;;;16.09;100.00;99290.72;5069188;28;20075;-73
2023/11/01 11:41:20;;;;;;;5.68;2.25;;;;;;;16.07;100.00;99284.66;5071907;28;20034;-74
2023/11/01 11:44:07;;;;;;;7.18;1.90;;;;;;;16.05;100.00;99284.84;5069012;28;20132;-74
2023/11/01 11:46:50;;;;;;;6.57;1.73;;;;;;;16.08;100.00;99278.34;5066360;28;20094;-73
2023/11/01 11:49:26;;;;;;;4.22;1.67;;;;;;;16.07;100.00;99280.19;5068500;28;20067;-73
2023/11/01 11:51:56;;;;;;;5.95;1.42;;;;;;;16.03;100.00;99273.44;5069872;28;20048;-73